createdAt,value
2022-10-12T00:01:07.106Z,13.75
2022-10-12T00:03:35.047Z,13.55
2022-10-12T00:06:11.159Z,13.88
2022-10-12T00:08:39.355Z,13.00
2022-10-12T00:11:07.456Z,14.18
2022-10-12T00:13:34.032Z,16.77
2022-10-12T00:16:05.856Z,13.93
2022-10-12T00:18:34.034Z,13.93
2022-10-12T00:21:06.735Z,15.60
2022-10-12T00:23:35.258Z,14.55
2022-10-12T00:26:04.638Z,16.58
2022-10-12T00:28:31.747Z,18.80
2022-10-12T00:30:58.776Z,16.17
2022-10-12T00:33:25.317Z,19.13
2022-10-12T00:35:54.834Z,17.10
2022-10-12T00:38:22.535Z,16.23
2022-10-12T00:40:49.124Z,13.90
2022-10-12T00:43:29.601Z,13.90
2022-10-12T00:45:57.482Z,12.82
2022-10-12T00:48:24.547Z,14.68
2022-10-12T00:50:52.177Z,12.95
2022-10-12T00:53:22.846Z,13.48
2022-10-12T00:55:54.173Z,13.65
2022-10-12T00:58:21.716Z,15.35
2022-10-12T01:00:48.637Z,14.30
2022-10-12T01:03:20.270Z,13.88
2022-10-12T01:05:47.093Z,17.42
2022-10-12T01:08:16.118Z,16.02
2022-10-12T01:10:42.825Z,13.18
2022-10-12T01:13:09.420Z,15.02
2022-10-12T01:15:48.493Z,19.05
2022-10-12T01:18:43.558Z,13.93
2022-10-12T01:21:17.268Z,18.65
2022-10-12T01:24:14.922Z,14.90
2022-10-12T01:27:03.195Z,13.85
2022-10-12T01:30:07.328Z,16.33
2022-10-12T01:32:36.759Z,14.82
2022-10-12T01:35:28.950Z,14.93
2022-10-12T01:38:24.423Z,15.27
2022-10-12T01:40:56.871Z,14.73
2022-10-12T01:43:23.856Z,18.00
2022-10-12T01:45:50.626Z,15.85
2022-10-12T01:48:17.803Z,16.40
2022-10-12T01:50:53.829Z,16.15
2022-10-12T01:53:29.333Z,16.63
2022-10-12T01:56:21.511Z,17.55
2022-10-12T01:59:04.385Z,16.48
2022-10-12T02:01:57.829Z,18.60
2022-10-12T02:04:34.934Z,16.02
2022-10-12T02:07:07.800Z,16.30
2022-10-12T02:09:35.981Z,21.00
2022-10-12T02:12:09.101Z,16.15
2022-10-12T02:14:40.737Z,19.73
2022-10-12T02:17:11.862Z,19.70
2022-10-12T02:19:55.050Z,16.33
2022-10-12T02:22:23.547Z,17.77
2022-10-12T02:24:52.441Z,16.75
2022-10-12T02:27:21.275Z,17.48
2022-10-12T02:29:48.519Z,20.40
2022-10-12T02:32:35.627Z,20.10
2022-10-12T02:35:10.462Z,19.13
2022-10-12T02:38:20.941Z,18.02
2022-10-12T02:41:02.117Z,17.08
2022-10-12T02:43:33.058Z,19.55
2022-10-12T02:48:29.114Z,21.48
2022-10-12T02:50:57.933Z,21.77
2022-10-12T02:53:27.771Z,18.25
2022-10-12T02:56:01.857Z,23.30
2022-10-12T02:58:28.361Z,21.50
2022-10-12T03:00:54.861Z,19.92
2022-10-12T03:03:21.414Z,20.10
2022-10-12T03:05:47.871Z,21.48
2022-10-12T03:08:14.320Z,22.55
2022-10-12T03:10:40.756Z,21.80
2022-10-12T03:13:07.166Z,19.60
2022-10-12T03:15:36.039Z,22.58
2022-10-12T03:18:02.555Z,21.48
2022-10-12T03:20:29.048Z,23.27
2022-10-12T03:22:55.914Z,23.40
2022-10-12T03:25:22.821Z,22.88
2022-10-12T03:27:49.236Z,18.60
2022-10-12T03:30:15.783Z,22.30
2022-10-12T03:32:42.318Z,19.33
2022-10-12T03:35:09.254Z,22.42
2022-10-12T03:37:35.973Z,22.48
2022-10-12T03:40:03.324Z,22.27
2022-10-12T03:42:29.832Z,24.23
2022-10-12T03:44:56.395Z,19.52
2022-10-12T03:47:22.945Z,20.00
2022-10-12T03:49:49.472Z,21.80
2022-10-12T03:52:15.996Z,19.48
2022-10-12T03:54:42.485Z,20.70
2022-10-12T03:57:08.961Z,24.70
2022-10-12T03:59:35.410Z,21.65
2022-10-12T04:02:02.513Z,24.63
2022-10-12T04:04:28.917Z,21.63
2022-10-12T04:06:55.416Z,21.92
2022-10-12T04:09:21.924Z,39.83
2022-10-12T04:11:48.421Z,34.03
2022-10-12T04:14:14.837Z,25.60
2022-10-12T04:16:41.258Z,32.38
2022-10-12T04:19:13.990Z,24.10
2022-10-12T04:21:40.992Z,26.52
2022-10-12T04:24:07.901Z,25.88
2022-10-12T04:26:34.425Z,22.35
2022-10-12T04:29:00.997Z,23.70
2022-10-12T04:31:27.585Z,21.35
2022-10-12T04:33:56.869Z,20.60
2022-10-12T04:36:24.556Z,20.77
2022-10-12T04:38:51.310Z,20.70
2022-10-12T04:41:17.857Z,23.00
2022-10-12T04:43:44.451Z,21.58
2022-10-12T04:46:11.512Z,23.65
2022-10-12T04:48:38.321Z,28.05
2022-10-12T04:51:06.167Z,21.92
2022-10-12T04:53:33.023Z,19.88
2022-10-12T04:56:03.541Z,19.92
2022-10-12T04:58:30.069Z,20.52
2022-10-12T05:00:56.907Z,24.40
2022-10-12T05:03:24.132Z,22.90
2022-10-12T05:05:51.266Z,21.25
2022-10-12T05:08:17.960Z,19.80
2022-10-12T05:10:46.168Z,21.65
2022-10-12T05:13:13.760Z,20.60
2022-10-12T05:15:42.551Z,18.67
2022-10-12T05:18:09.502Z,19.77
2022-10-12T05:20:36.216Z,21.25
2022-10-12T05:23:02.852Z,20.02
2022-10-12T05:25:29.688Z,22.40
2022-10-12T05:27:57.194Z,23.92
2022-10-12T05:30:24.585Z,21.63
2022-10-12T05:32:51.108Z,19.23
2022-10-12T05:35:17.756Z,17.75
2022-10-12T05:37:44.429Z,18.05
2022-10-12T05:40:11.563Z,17.85
2022-10-12T05:42:38.512Z,21.85
2022-10-12T05:45:06.206Z,19.35
2022-10-12T05:47:32.728Z,23.00
2022-10-12T05:49:59.261Z,21.85
2022-10-12T05:52:25.816Z,20.10
2022-10-12T05:54:52.348Z,21.75
2022-10-12T05:57:19.521Z,21.02
2022-10-12T05:59:46.326Z,18.63
2022-10-12T06:02:18.961Z,21.92
2022-10-12T06:04:45.597Z,18.30
2022-10-12T06:07:12.334Z,19.65
2022-10-12T06:09:39.039Z,21.35
2022-10-12T06:12:07.751Z,19.73
2022-10-12T06:14:34.267Z,17.10
2022-10-12T06:17:07.865Z,18.10
2022-10-12T06:19:34.442Z,17.65
2022-10-12T06:22:01.122Z,16.80
2022-10-12T06:24:27.670Z,18.77
2022-10-12T06:26:54.173Z,18.00
2022-10-12T06:29:23.353Z,18.60
2022-10-12T06:31:51.952Z,18.23
2022-10-12T06:34:18.743Z,21.70
2022-10-12T06:36:45.343Z,19.52
2022-10-12T06:39:12.014Z,19.05
2022-10-12T06:41:39.095Z,19.95
2022-10-12T06:44:05.708Z,18.40
2022-10-12T06:46:32.228Z,28.88
2022-10-12T06:48:58.715Z,18.73
2022-10-12T06:51:25.324Z,18.38
2022-10-12T06:53:55.369Z,17.33
2022-10-12T06:56:22.074Z,16.10
2022-10-12T06:58:53.971Z,16.65
2022-10-12T07:01:20.467Z,15.15
2022-10-12T07:03:46.968Z,17.00
2022-10-12T07:06:14.584Z,18.08
2022-10-12T07:08:42.070Z,45.28
2022-10-12T07:11:11.773Z,18.13
2022-10-12T07:13:38.857Z,16.33
2022-10-12T07:16:05.776Z,17.17
2022-10-12T07:18:32.588Z,18.25
2022-10-12T07:20:59.885Z,17.65
2022-10-12T07:23:27.796Z,21.38
2022-10-12T07:25:54.722Z,17.77
2022-10-12T07:28:22.211Z,16.63
2022-10-12T07:30:48.971Z,17.70
2022-10-12T07:33:16.090Z,18.00
2022-10-12T07:36:03.259Z,19.00
2022-10-12T07:38:29.815Z,17.13
2022-10-12T07:40:59.991Z,15.82
2022-10-12T07:43:27.161Z,18.13
2022-10-12T07:45:53.669Z,19.60
2022-10-12T07:48:20.879Z,17.40
2022-10-12T07:50:47.670Z,20.15
2022-10-12T07:53:14.284Z,20.33
2022-10-12T07:55:41.108Z,17.30
2022-10-12T07:58:11.893Z,15.30
2022-10-12T08:00:38.637Z,17.50
2022-10-12T08:03:05.172Z,15.38
2022-10-12T08:05:31.696Z,17.77
2022-10-12T08:08:00.246Z,19.13
2022-10-12T08:10:27.049Z,18.08
2022-10-12T08:12:53.640Z,17.63
2022-10-12T08:15:20.641Z,17.38
2022-10-12T08:17:47.336Z,17.10
2022-10-12T08:20:16.438Z,16.23
2022-10-12T08:22:43.101Z,15.73
2022-10-12T08:25:09.623Z,18.33
2022-10-12T08:27:38.454Z,18.60
2022-10-12T08:30:06.655Z,15.98
2022-10-12T08:32:33.359Z,17.58
2022-10-12T08:35:00.449Z,17.23
2022-10-12T08:37:27.066Z,17.00
2022-10-12T08:39:53.745Z,18.20
2022-10-12T08:42:55.528Z,17.40
2022-10-12T08:45:41.544Z,19.27
2022-10-12T08:48:12.257Z,17.73
2022-10-12T08:53:26.264Z,15.13
2022-10-12T08:55:53.010Z,14.73
2022-10-12T08:58:23.232Z,14.68
2022-10-12T09:00:59.862Z,14.50
2022-10-12T09:03:40.425Z,15.38
2022-10-12T09:06:14.145Z,16.13
2022-10-12T09:09:03.055Z,16.55
2022-10-12T09:11:38.896Z,14.23
2022-10-12T09:14:06.999Z,13.45
2022-10-12T09:16:39.430Z,16.00
2022-10-12T09:19:18.969Z,15.43
2022-10-12T09:21:48.510Z,19.25
2022-10-12T09:24:41.994Z,15.40
2022-10-12T09:27:20.172Z,15.02
2022-10-12T09:29:55.339Z,14.25
2022-10-12T09:32:49.124Z,14.80
2022-10-12T09:35:16.158Z,14.23
2022-10-12T09:37:52.897Z,16.90
2022-10-12T09:40:30.486Z,17.63
2022-10-12T09:43:03.160Z,16.05
2022-10-12T09:45:35.083Z,14.30
2022-10-12T09:48:10.683Z,15.52
2022-10-12T09:50:44.692Z,14.73
2022-10-12T09:53:27.471Z,18.05
2022-10-12T09:56:28.971Z,16.35
2022-10-12T09:59:08.300Z,15.43
2022-10-12T10:01:36.260Z,16.10
2022-10-12T10:04:24.079Z,16.25
2022-10-12T10:06:51.137Z,16.08
2022-10-12T10:09:26.795Z,16.80
2022-10-12T10:11:53.588Z,17.23
2022-10-12T10:14:20.150Z,16.60
2022-10-12T10:16:51.668Z,19.23
2022-10-12T10:19:21.783Z,19.67
2022-10-12T10:21:48.418Z,16.40
2022-10-12T10:24:35.377Z,16.13
2022-10-12T10:27:04.806Z,17.17
2022-10-12T10:29:41.674Z,19.02
2022-10-12T10:32:15.750Z,17.60
2022-10-12T10:34:45.912Z,18.42
2022-10-12T10:37:23.162Z,19.30
2022-10-12T10:42:23.340Z,17.33
2022-10-12T10:44:53.355Z,19.13
2022-10-12T10:47:20.036Z,17.67
2022-10-12T10:49:52.133Z,18.52
2022-10-12T10:52:25.857Z,20.15
2022-10-12T10:55:10.575Z,21.60
2022-10-12T10:57:41.304Z,20.55
2022-10-12T11:00:37.947Z,18.88
2022-10-12T11:03:31.296Z,19.95
2022-10-12T11:06:14.212Z,22.33
2022-10-12T11:08:43.668Z,24.13
2022-10-12T11:11:18.806Z,20.88
2022-10-12T11:13:55.748Z,22.50
2022-10-12T11:16:43.725Z,23.35
2022-10-12T11:19:34.177Z,21.10
2022-10-12T11:22:06.097Z,22.52
2022-10-12T11:24:44.041Z,20.48
2022-10-12T11:27:33.939Z,27.77
2022-10-12T11:30:11.645Z,23.10
2022-10-12T11:32:49.813Z,20.30
2022-10-12T11:35:30.375Z,20.90
2022-10-12T11:38:21.414Z,24.42
2022-10-12T11:41:31.211Z,20.02
2022-10-12T11:44:04.002Z,20.83
2022-10-12T11:46:38.592Z,22.80
2022-10-12T11:49:20.793Z,20.92
2022-10-12T11:51:50.501Z,23.42
2022-10-12T11:54:40.318Z,24.00
2022-10-12T11:57:17.695Z,22.75
2022-10-12T11:59:54.887Z,23.25
2022-10-12T12:02:38.163Z,22.63
2022-10-12T12:05:21.707Z,23.23
2022-10-12T12:11:25.231Z,25.05
2022-10-12T12:14:21.241Z,23.48
2022-10-12T12:16:49.678Z,22.83
2022-10-12T12:19:37.045Z,24.45
2022-10-12T12:22:17.044Z,21.27
2022-10-12T12:24:58.041Z,23.45
2022-10-12T12:27:32.639Z,23.17
2022-10-12T12:30:02.095Z,23.65
2022-10-12T12:32:52.271Z,23.27
2022-10-12T12:35:24.400Z,22.85
2022-10-12T12:38:20.736Z,22.60
2022-10-12T12:41:17.742Z,24.70
2022-10-12T12:43:56.415Z,21.35
2022-10-12T12:46:25.593Z,24.10
2022-10-12T12:48:52.708Z,21.38
2022-10-12T12:51:45.969Z,23.70
2022-10-12T12:54:20.631Z,19.67
2022-10-12T12:57:06.146Z,21.92
2022-10-12T13:00:06.791Z,23.13
2022-10-12T13:02:53.332Z,20.10
2022-10-12T13:06:00.049Z,21.50
2022-10-12T13:08:41.675Z,24.40
2022-10-12T13:11:45.747Z,20.75
2022-10-12T13:14:43.443Z,22.17
2022-10-12T13:17:54.330Z,21.23
2022-10-12T13:20:29.050Z,17.17
2022-10-12T13:23:02.996Z,21.40
2022-10-12T13:25:56.238Z,24.60
2022-10-12T13:28:28.797Z,18.33
2022-10-12T13:31:00.207Z,18.63
2022-10-12T13:33:39.590Z,20.48
2022-10-12T13:36:13.320Z,19.75
2022-10-12T13:38:40.535Z,18.70
2022-10-12T13:41:12.136Z,17.88
2022-10-12T13:43:46.613Z,19.35
2022-10-12T13:46:37.659Z,20.80
2022-10-12T13:49:17.677Z,20.73
2022-10-12T13:51:48.216Z,21.10
2022-10-12T13:57:01.288Z,20.10
2022-10-12T13:59:33.459Z,20.17
2022-10-12T14:02:02.299Z,18.40
2022-10-12T14:04:35.138Z,15.57
2022-10-12T14:07:07.439Z,19.95
2022-10-12T14:09:43.533Z,17.48
2022-10-12T14:12:11.446Z,23.95
2022-10-12T14:14:42.860Z,18.38
2022-10-12T14:17:20.894Z,20.63
2022-10-12T14:19:58.895Z,25.83
2022-10-12T14:22:29.598Z,18.70
2022-10-12T14:25:08.501Z,18.02
2022-10-12T14:27:38.908Z,21.20
2022-10-12T14:30:23.400Z,19.17
2022-10-12T14:32:53.938Z,17.95
2022-10-12T14:35:26.513Z,23.23
2022-10-12T14:37:54.974Z,23.08
2022-10-12T14:40:39.207Z,21.20
2022-10-12T14:43:21.248Z,18.38
2022-10-12T14:45:47.857Z,17.88
2022-10-12T14:48:18.999Z,22.17
2022-10-12T14:50:46.483Z,19.17
2022-10-12T14:53:14.776Z,23.92
2022-10-12T14:55:42.586Z,24.55
2022-10-12T14:58:15.000Z,24.40
2022-10-12T15:00:42.547Z,26.98
2022-10-12T15:03:09.180Z,24.42
2022-10-12T15:05:35.940Z,22.75
2022-10-12T15:08:08.804Z,26.45
2022-10-12T15:10:37.021Z,28.95
2022-10-12T15:13:23.831Z,24.70
2022-10-12T15:15:52.696Z,25.00
2022-10-12T15:18:19.321Z,25.08
2022-10-12T15:20:49.378Z,27.50
2022-10-12T15:23:16.684Z,33.80
2022-10-12T15:25:56.518Z,24.27
2022-10-12T15:28:23.555Z,28.50
2022-10-12T15:33:40.500Z,27.10
2022-10-12T15:36:10.228Z,29.88
2022-10-12T15:38:37.197Z,26.17
2022-10-12T15:41:04.206Z,28.95
2022-10-12T15:43:33.684Z,26.23
2022-10-12T15:46:02.712Z,29.08
2022-10-12T15:48:30.572Z,31.98
2022-10-12T15:50:57.296Z,30.40
2022-10-12T15:53:25.720Z,36.45
2022-10-12T15:55:53.988Z,34.17
2022-10-12T15:58:20.921Z,29.40
2022-10-12T16:00:48.019Z,34.47
2022-10-12T16:03:25.886Z,34.95
2022-10-12T16:05:53.983Z,34.85
2022-10-12T16:08:20.952Z,32.28
2022-10-12T16:10:48.389Z,36.85
2022-10-12T16:13:16.364Z,30.20
2022-10-12T16:15:44.414Z,32.97
2022-10-12T16:18:11.458Z,36.08
2022-10-12T16:20:39.411Z,33.20
2022-10-12T16:23:18.953Z,36.05
2022-10-12T16:25:45.883Z,34.30
2022-10-12T16:28:12.618Z,33.28
2022-10-12T16:30:41.062Z,35.22
2022-10-12T16:33:10.642Z,37.00
2022-10-12T16:35:40.487Z,35.28
2022-10-12T16:38:09.321Z,44.08
2022-10-12T16:40:39.128Z,35.97
2022-10-12T16:43:06.150Z,37.45
2022-10-12T16:45:36.495Z,39.00
2022-10-12T16:48:03.923Z,35.00
2022-10-12T16:50:30.604Z,39.50
2022-10-12T16:52:57.956Z,38.72
2022-10-12T16:55:24.595Z,38.58
2022-10-12T16:57:51.311Z,37.38
2022-10-12T17:00:20.263Z,32.72
2022-10-12T17:02:48.027Z,36.78
2022-10-12T17:05:14.856Z,36.17
2022-10-12T17:07:41.513Z,37.40
2022-10-12T17:10:08.611Z,37.20
2022-10-12T17:12:35.880Z,50.47
2022-10-12T17:15:02.621Z,39.80
2022-10-12T17:17:29.327Z,39.30
2022-10-12T17:19:56.414Z,36.85
2022-10-12T17:22:23.041Z,34.92
2022-10-12T17:24:49.650Z,40.35
2022-10-12T17:27:16.904Z,36.63
2022-10-12T17:29:44.068Z,45.65
2022-10-12T17:36:09.414Z,36.67
2022-10-12T17:38:36.987Z,37.17
2022-10-12T17:41:05.107Z,34.75
2022-10-12T17:43:32.354Z,37.38
2022-10-12T17:46:02.184Z,38.50
2022-10-12T17:48:30.180Z,38.50
2022-10-12T17:51:02.744Z,39.03
2022-10-12T17:53:29.414Z,38.90
2022-10-12T17:56:01.130Z,38.08
2022-10-12T17:58:28.388Z,39.53
2022-10-12T18:01:03.451Z,41.15
2022-10-12T18:03:30.263Z,35.80
2022-10-12T18:06:03.444Z,33.95
2022-10-12T18:08:30.366Z,34.00
2022-10-12T18:11:00.777Z,34.55
2022-10-12T18:13:28.875Z,32.42
2022-10-12T18:15:55.987Z,36.70
2022-10-12T18:18:22.666Z,35.35
2022-10-12T18:20:49.649Z,35.30
2022-10-12T18:23:16.319Z,33.80
2022-10-12T18:25:43.703Z,38.83
2022-10-12T18:28:11.735Z,42.45
2022-10-12T18:30:45.590Z,39.25
2022-10-12T18:33:12.238Z,39.42
2022-10-12T18:35:38.721Z,36.15
2022-10-12T18:38:05.316Z,77.05
2022-10-12T18:40:36.567Z,37.97
2022-10-12T18:43:06.012Z,34.97
2022-10-12T18:45:35.185Z,37.75
2022-10-12T18:48:06.383Z,38.88
2022-10-12T18:50:35.337Z,37.78
2022-10-12T18:53:01.921Z,41.53
2022-10-12T18:55:28.524Z,42.65
2022-10-12T18:57:55.255Z,43.03
2022-10-12T19:00:26.421Z,39.58
2022-10-12T19:02:52.954Z,39.55
2022-10-12T19:05:19.552Z,39.88
2022-10-12T19:07:45.993Z,45.30
2022-10-12T19:10:12.637Z,43.42
2022-10-12T19:12:43.375Z,38.75
2022-10-12T19:15:12.125Z,39.55
2022-10-12T19:17:38.532Z,126.22
2022-10-12T19:20:05.479Z,39.95
2022-10-12T19:22:31.937Z,40.80
2022-10-12T19:24:59.919Z,47.92
2022-10-12T19:27:26.442Z,59.00
2022-10-12T19:29:52.978Z,50.03
2022-10-12T19:32:19.861Z,44.13
2022-10-12T19:34:50.025Z,39.50
2022-10-12T19:37:16.548Z,43.92
2022-10-12T19:39:45.009Z,47.50
2022-10-12T19:42:11.440Z,46.88
2022-10-12T19:44:38.075Z,41.03
2022-10-12T19:47:04.899Z,46.38
2022-10-12T19:49:36.433Z,47.45
2022-10-12T19:52:03.872Z,43.90
2022-10-12T19:54:34.078Z,51.92
2022-10-12T19:57:05.666Z,46.42
2022-10-12T19:59:32.143Z,42.08
2022-10-12T20:02:01.976Z,41.47
2022-10-12T20:04:30.062Z,44.90
2022-10-12T20:06:56.718Z,43.63
2022-10-12T20:09:23.243Z,41.30
2022-10-12T20:11:50.044Z,41.75
2022-10-12T20:14:18.877Z,37.80
2022-10-12T20:16:45.523Z,43.78
2022-10-12T20:19:12.216Z,42.03
2022-10-12T20:21:38.860Z,41.78
2022-10-12T20:24:11.949Z,43.65
2022-10-12T20:26:38.800Z,49.78
2022-10-12T20:29:05.351Z,41.88
2022-10-12T20:31:31.942Z,44.08
2022-10-12T20:33:58.607Z,42.88
2022-10-12T20:36:28.438Z,42.13
2022-10-12T20:38:55.442Z,50.00
2022-10-12T20:41:23.175Z,41.13
2022-10-12T20:43:49.654Z,43.53
2022-10-12T20:46:18.461Z,40.28
2022-10-12T20:48:45.688Z,42.75
2022-10-12T20:51:28.908Z,42.00
2022-10-12T20:53:59.048Z,42.47
2022-10-12T20:56:27.348Z,40.67
2022-10-12T20:58:55.359Z,44.55
2022-10-12T21:01:23.000Z,39.75
2022-10-12T21:03:49.705Z,38.85
2022-10-12T21:06:17.357Z,43.05
2022-10-12T21:08:43.811Z,40.05
2022-10-12T21:11:11.037Z,41.15
2022-10-12T21:13:42.282Z,43.42
2022-10-12T21:16:13.369Z,40.90
2022-10-12T21:18:41.320Z,40.65
2022-10-12T21:21:12.838Z,40.28
2022-10-12T21:23:41.210Z,41.17
2022-10-12T21:26:12.580Z,39.67
2022-10-12T21:28:39.417Z,42.70
2022-10-12T21:31:06.170Z,42.65
2022-10-12T21:33:35.065Z,40.90
2022-10-12T21:36:07.849Z,39.92
2022-10-12T21:38:34.625Z,41.00
2022-10-12T21:41:01.192Z,40.00
2022-10-12T21:43:27.636Z,39.60
2022-10-12T21:45:56.274Z,41.65
2022-10-12T21:48:22.785Z,37.72
2022-10-12T21:50:49.301Z,36.83
2022-10-12T21:53:15.957Z,39.13
2022-10-12T21:55:42.383Z,38.63
2022-10-12T21:58:08.847Z,36.80
2022-10-12T22:00:35.339Z,38.33
2022-10-12T22:03:02.032Z,34.95
2022-10-12T22:05:28.578Z,40.55
2022-10-12T22:07:57.998Z,44.83
2022-10-12T22:10:24.706Z,40.63
2022-10-12T22:12:51.271Z,40.10
2022-10-12T22:15:17.822Z,41.17
2022-10-12T22:17:44.253Z,40.60
2022-10-12T22:20:11.328Z,39.58
2022-10-12T22:22:38.154Z,37.22
2022-10-12T22:25:05.080Z,40.60
2022-10-12T22:27:31.735Z,43.03
2022-10-12T22:30:01.612Z,40.00
2022-10-12T22:32:28.145Z,41.45
2022-10-12T22:34:54.771Z,41.00
2022-10-12T22:37:22.082Z,41.67
2022-10-12T22:39:48.635Z,37.97
2022-10-12T22:42:15.140Z,46.72
2022-10-12T22:44:41.600Z,43.53
2022-10-12T22:47:08.082Z,38.72
2022-10-12T22:49:34.618Z,37.88
2022-10-12T22:52:01.116Z,42.80
2022-10-12T22:54:27.707Z,43.03
2022-10-12T22:56:54.383Z,44.05
2022-10-12T22:59:20.944Z,44.28
2022-10-12T23:01:47.570Z,40.03
2022-10-12T23:04:14.146Z,48.47
2022-10-12T23:06:40.655Z,46.22
2022-10-12T23:09:07.298Z,41.42
2022-10-12T23:11:33.882Z,47.05
2022-10-12T23:14:00.845Z,46.97
2022-10-12T23:16:30.004Z,42.42
2022-10-12T23:18:59.706Z,43.08
2022-10-12T23:21:27.914Z,40.97
2022-10-12T23:23:54.558Z,43.83
2022-10-12T23:26:23.268Z,45.95
2022-10-12T23:28:50.757Z,40.50
2022-10-12T23:31:22.232Z,38.95
2022-10-12T23:33:48.895Z,41.97
2022-10-12T23:36:17.420Z,43.28
2022-10-12T23:38:44.724Z,44.05
2022-10-12T23:41:12.294Z,44.30
2022-10-12T23:43:38.889Z,41.72
2022-10-12T23:46:05.752Z,42.13
2022-10-12T23:48:33.264Z,39.97
2022-10-12T23:51:00.369Z,41.85
2022-10-12T23:53:27.323Z,40.25
2022-10-12T23:55:54.428Z,42.30
2022-10-12T23:58:21.174Z,40.17
